Main page
METAR-TAF:

METAR-TAF

Airports :

Rabat–Salé Airport

Rabat, Morocco

latitude: 34-03N, longitude: 006-46W, elevation: 84 m

Current weather observation

The report was made 10 minutes ago, at 19:30 UTC
Calm wind
Temperature 6°C
Humidity 100%
Pressure 1019 hPa
Visibility: 6000 m

METAR: GMME 211930Z 00000KT 6000 NSC 06/06 Q1019 NOSIG

Time: 20:40 (19:40 UTC)

Forecast

The report was made 2 hours and 40 minutes ago, at 17:00 UTC
Forecast valid from 21 at 18 UTC to 22 at 24 UTC
Wind 5 kt from the South/Southeast
Visibility: 6000 m
Becoming
from 22 at 15 UTC to 22 at 19 UTC
Scattered clouds at a height of 1300 ft
Broken clouds at a height of 1600 ft
Probability 30% :
Temporary
from 22 at 20 UTC to 22 at 24 UTC
Visibility: 4000 m
rain

TAF: GMME 211700Z 2118/2224 15005KT 6000 NSC BECMG 2215/2219 SCT013 BKN016 PROB30 TEMPO 2220/2224 4000 RA

Weather observations and forecasts of more than 4000 airports (METAR and TAF reports).

The available stations are represented by yellow and red dots on the map.

Hover mouse over dot to see the name of the station.

Then click to see weather observations and forecasts.

To change the map : click on the green buttons with a black cross to zoom in, on the green button with a dash to zoom out, or on the green arrows for adjacent maps.


METAR-TAF: